Time;durP1;ratioP1;P1;durP2;ratioP2;P2;SDS_P1;SDS_P2;PMS_P1;PMS_P2;Temp;Humidity;BMP_temperature;BMP_pressure;BME280_temperature;BME280_humidity;BME280_pressure;Samples;Min_cycle;Max_cycle;Signal;HPM_P1;HPM_P2
2022/10/05 00:01:37;;;;;;;10.52;5.90;;;11.10;91.10;;;;;;4989961;28;20037;-78
2022/10/05 00:04:15;;;;;;;9.20;5.28;;;11.00;90.90;;;;;;4990288;28;20447;-78
2022/10/05 00:06:43;;;;;;;11.18;5.85;;;11.00;91.30;;;;;;4988958;28;20052;-78
2022/10/05 00:09:19;;;;;;;11.13;6.05;;;11.00;91.20;;;;;;4989315;28;20061;-78
2022/10/05 00:11:45;;;;;;;15.75;5.72;;;10.90;91.20;;;;;;4995290;28;20371;-78
2022/10/05 00:14:26;;;;;;;12.40;5.95;;;10.90;91.40;;;;;;4990248;28;20084;-78
2022/10/05 00:16:52;;;;;;;13.13;5.95;;;11.00;91.60;;;;;;4990308;28;20033;-77
2022/10/05 00:19:40;;;;;;;11.63;5.70;;;11.10;91.10;;;;;;4989978;28;20042;-77
2022/10/05 00:22:17;;;;;;;9.00;5.63;;;11.10;91.10;;;;;;4992885;28;20131;-77
2022/10/05 00:24:44;;;;;;;16.08;5.53;;;11.20;90.80;;;;;;4990411;28;20087;-77
2022/10/05 00:27:20;;;;;;;12.88;5.80;;;11.30;90.70;;;;;;4988853;28;20041;-77
2022/10/05 00:29:47;;;;;;;12.55;5.75;;;11.30;90.50;;;;;;4990236;28;20104;-77
2022/10/05 00:32:13;;;;;;;11.60;5.30;;;11.30;90.50;;;;;;4990741;28;20053;-77
2022/10/05 00:34:40;;;;;;;11.20;6.00;;;11.30;90.60;;;;;;4997433;28;20057;-78
2022/10/05 00:37:05;;;;;;;10.13;5.18;;;11.30;90.40;;;;;;4994435;28;20034;-78
2022/10/05 00:39:32;;;;;;;11.75;6.10;;;11.40;90.50;;;;;;4991465;28;20042;-77
2022/10/05 00:42:20;;;;;;;18.60;6.78;;;11.40;90.30;;;;;;4990202;28;20037;-76
2022/10/05 00:44:57;;;;;;;12.52;5.63;;;11.40;90.30;;;;;;4989393;28;20033;-77
2022/10/05 00:47:51;;;;;;;14.75;5.80;;;11.40;90.10;;;;;;4989945;28;20048;-79
2022/10/05 00:50:41;;;;;;;12.07;6.05;;;11.50;90.00;;;;;;4991815;28;20355;-79
2022/10/05 00:53:41;;;;;;;10.82;5.22;;;11.50;90.00;;;;;;4990838;28;20642;-78
2022/10/05 00:56:34;;;;;;;12.35;4.95;;;11.50;89.70;;;;;;4992153;28;20022;-79
2022/10/05 00:59:06;;;;;;;9.52;5.47;;;11.60;89.60;;;;;;4991063;28;20148;-77
2022/10/05 01:01:58;;;;;;;12.00;5.75;;;11.60;89.40;;;;;;4990348;28;20241;-76
2022/10/05 01:05:01;;;;;;;11.60;4.90;;;11.60;89.40;;;;;;4994852;28;20455;-78
2022/10/05 01:07:42;;;;;;;7.97;4.88;;;11.60;89.60;;;;;;4988610;28;20152;-77
2022/10/05 01:10:20;;;;;;;;;;;11.60;89.80;;;;;;4991045;28;20038;-78
2022/10/05 01:13:11;;;;;;;14.50;5.20;;;11.50;89.80;;;;;;4994800;28;19911;-77
2022/10/05 01:16:12;;;;;;;10.63;5.40;;;11.50;89.70;;;;;;4990330;28;20422;-77
2022/10/05 01:18:54;;;;;;;12.32;5.47;;;11.60;89.90;;;;;;4990874;28;20042;-77
2022/10/05 01:21:23;;;;;;;10.73;5.75;;;11.60;89.60;;;;;;4990696;28;20137;-77
2022/10/05 01:24:07;;;;;;;11.77;5.57;;;11.60;89.70;;;;;;4989939;28;20446;-77
2022/10/05 01:26:35;;;;;;;9.88;5.65;;;11.70;89.60;;;;;;4990107;28;20352;-77
2022/10/05 01:29:14;;;;;;;11.07;5.20;;;11.70;89.60;;;;;;4992938;28;20469;-78
2022/10/05 01:31:51;;;;;;;8.75;5.55;;;11.70;89.30;;;;;;4991280;28;20030;-77
2022/10/05 01:34:47;;;;;;;12.23;5.38;;;11.80;89.20;;;;;;4990137;28;20065;-77
2022/10/05 01:37:35;;;;;;;11.80;5.22;;;11.80;89.20;;;;;;4990119;28;20053;-77
2022/10/05 01:40:14;;;;;;;9.77;5.07;;;11.80;89.00;;;;;;4989007;28;20034;-78
2022/10/05 01:42:58;;;;;;;9.00;5.00;;;11.80;89.10;;;;;;4991851;28;20301;-77
2022/10/05 01:45:33;;;;;;;11.30;5.25;;;11.80;89.10;;;;;;4989841;28;20625;-78
2022/10/05 01:48:27;;;;;;;11.25;5.80;;;11.80;89.20;;;;;;4991123;28;20037;-78
2022/10/05 01:51:17;;;;;;;8.60;5.22;;;11.80;89.10;;;;;;4984179;28;20370;-78
2022/10/05 01:54:06;;;;;;;9.85;5.10;;;11.80;89.10;;;;;;4987873;28;20064;-77
2022/10/05 01:56:40;;;;;;;11.98;5.35;;;11.90;89.00;;;;;;4980620;28;20730;-78
2022/10/05 01:59:47;;;;;;;9.48;4.80;;;11.80;89.10;;;;;;4993386;28;20536;-78
2022/10/05 02:02:16;;;;;;;8.25;5.05;;;11.80;89.20;;;;;;4998374;28;20026;-78
2022/10/05 02:04:52;;;;;;;11.75;4.88;;;11.80;89.20;;;;;;4989550;28;20039;-77
2022/10/05 02:07:44;;;;;;;9.52;4.53;;;11.80;89.40;;;;;;4988281;28;20435;-78
2022/10/05 02:10:24;;;;;;;10.77;5.00;;;11.80;89.30;;;;;;5006887;28;20026;-77
2022/10/05 02:12:58;;;;;;;10.02;5.00;;;11.90;89.20;;;;;;4991155;28;20049;-77
2022/10/05 02:15:33;;;;;;;10.60;5.25;;;11.90;89.20;;;;;;4990051;28;20062;-77
2022/10/05 02:18:07;;;;;;;14.52;5.53;;;11.90;89.20;;;;;;4990419;28;20037;-78
2022/10/05 02:20:36;;;;;;;8.80;4.70;;;11.90;89.50;;;;;;4999646;28;20103;-78
2022/10/05 02:23:08;;;;;;;14.40;5.50;;;11.90;89.50;;;;;;5010258;28;20030;-78
2022/10/05 02:25:38;;;;;;;13.95;5.63;;;11.90;89.50;;;;;;5000020;28;20408;-77
2022/10/05 02:28:17;;;;;;;8.57;5.35;;;11.90;89.70;;;;;;4993657;28;20199;-78
2022/10/05 02:30:49;;;;;;;9.52;5.05;;;11.90;89.70;;;;;;4993328;28;20158;-78
2022/10/05 02:33:24;;;;;;;11.82;5.55;;;11.90;89.60;;;;;;4992013;28;20049;-77
2022/10/05 02:35:49;;;;;;;13.13;5.97;;;11.90;89.70;;;;;;5006109;28;20104;-77
2022/10/05 02:38:39;;;;;;;10.80;5.20;;;11.90;89.80;;;;;;5009773;28;20540;-78
2022/10/05 02:41:38;;;;;;;8.82;5.35;;;11.80;90.00;;;;;;5009042;28;20405;-78
2022/10/05 02:44:21;;;;;;;9.20;4.68;;;11.70;90.10;;;;;;5010763;28;20466;-78
2022/10/05 02:47:17;;;;;;;12.95;5.50;;;11.70;90.20;;;;;;5009351;28;20461;-78
2022/10/05 02:50:18;;;;;;;8.40;5.35;;;11.70;90.40;;;;;;5011400;28;20037;-78
2022/10/05 02:53:08;;;;;;;12.85;5.85;;;11.70;90.60;;;;;;4947253;28;20110;-78
2022/10/05 02:55:47;;;;;;;11.05;5.30;;;11.70;90.60;;;;;;4997905;28;20716;-77
2022/10/05 02:58:19;;;;;;;11.40;5.78;;;11.80;90.60;;;;;;5000253;28;20332;-78
2022/10/05 03:00:55;;;;;;;11.82;5.88;;;11.80;90.70;;;;;;5010308;28;20030;-78
2022/10/05 03:03:36;;;;;;;10.95;5.32;;;11.80;90.70;;;;;;4999199;28;20095;-78
2022/10/05 03:06:07;;;;;;;10.40;5.47;;;11.70;90.90;;;;;;5008658;28;20509;-78
2022/10/05 03:08:57;;;;;;;10.10;5.40;;;11.80;90.90;;;;;;5008712;28;20415;-77
2022/10/05 03:11:59;;;;;;;11.77;5.45;;;11.80;90.80;;;;;;5010326;28;20076;-78
2022/10/05 03:14:49;;;;;;;9.13;5.40;;;11.90;90.70;;;;;;5009795;28;20065;-78
2022/10/05 03:17:21;;;;;;;13.20;5.90;;;11.90;90.70;;;;;;5011159;28;20053;-78
2022/10/05 03:20:04;;;;;;;11.25;6.15;;;12.00;90.60;;;;;;5011314;28;20419;-78
2022/10/05 03:22:52;;;;;;;14.02;5.72;;;11.90;90.70;;;;;;5002988;28;20026;-78
2022/10/05 03:25:39;;;;;;;12.52;6.00;;;12.00;90.50;;;;;;5008445;28;20033;-78
2022/10/05 03:28:17;;;;;;;9.02;5.60;;;12.00;90.60;;;;;;5011148;28;20378;-78
2022/10/05 03:31:04;;;;;;;11.18;5.43;;;12.00;90.60;;;;;;5011164;28;20045;-78
2022/10/05 03:33:46;;;;;;;12.98;5.78;;;12.00;90.60;;;;;;5010509;28;20525;-78
2022/10/05 03:36:32;;;;;;;10.45;6.00;;;12.10;90.50;;;;;;5009891;28;20026;-78
2022/10/05 03:39:14;;;;;;;11.63;6.00;;;12.10;90.50;;;;;;4998131;28;20038;-78
2022/10/05 03:41:51;;;;;;;14.80;5.45;;;12.10;90.60;;;;;;5008014;28;20068;-77
2022/10/05 03:44:27;;;;;;;12.20;6.70;;;12.10;90.70;;;;;;5005797;28;20018;-78
2022/10/05 03:47:18;;;;;;;13.30;6.22;;;12.10;90.60;;;;;;5006228;28;20093;-78
2022/10/05 03:50:00;;;;;;;10.10;5.95;;;12.10;90.80;;;;;;5010659;28;20046;-78
2022/10/05 03:52:35;;;;;;;14.35;7.00;;;12.10;90.80;;;;;;5010781;28;20324;-78
2022/10/05 03:55:10;;;;;;;9.15;5.85;;;12.20;90.80;;;;;;5001766;28;20033;-78
2022/10/05 03:57:39;;;;;;;11.10;6.45;;;12.20;90.70;;;;;;5014121;28;20099;-78
2022/10/05 04:00:15;;;;;;;11.40;6.50;;;12.20;90.50;;;;;;5007863;28;20451;-78
2022/10/05 04:03:02;;;;;;;12.00;6.57;;;12.30;90.40;;;;;;5009142;28;20122;-78
2022/10/05 04:05:40;;;;;;;11.15;5.75;;;12.20;90.60;;;;;;5001798;28;20046;-78
2022/10/05 04:08:34;;;;;;;14.45;6.47;;;12.20;90.70;;;;;;5013283;28;20088;-78
2022/10/05 04:11:06;;;;;;;17.67;7.35;;;12.30;90.70;;;;;;5007626;28;20471;-78
2022/10/05 04:13:38;;;;;;;11.50;6.55;;;12.40;90.40;;;;;;5011292;28;20041;-78
2022/10/05 04:16:11;;;;;;;12.07;6.40;;;12.30;90.60;;;;;;5012885;28;20396;-78
2022/10/05 04:18:42;;;;;;;13.57;6.63;;;12.40;90.60;;;;;;5009958;28;20160;-79
2022/10/05 04:21:22;;;;;;;10.60;6.47;;;12.40;90.40;;;;;;5010087;28;20435;-79
2022/10/05 04:24:02;;;;;;;14.73;6.00;;;12.40;90.60;;;;;;4987858;28;20040;-79
2022/10/05 04:26:44;;;;;;;13.75;6.60;;;12.40;90.60;;;;;;5017202;28;20067;-79
2022/10/05 04:29:23;;;;;;;12.32;6.70;;;12.40;90.70;;;;;;5001324;28;20118;-67
2022/10/05 04:32:05;;;;;;;14.20;6.97;;;12.40;90.70;;;;;;5013715;28;20113;-67
2022/10/05 04:34:45;;;;;;;14.70;7.15;;;12.50;90.60;;;;;;5015941;28;20042;-67
2022/10/05 04:37:36;;;;;;;14.90;7.22;;;12.50;90.70;;;;;;5017735;28;20471;-67
2022/10/05 04:40:21;;;;;;;10.45;7.07;;;12.50;90.40;;;;;;5009834;28;20038;-69
2022/10/05 04:43:14;;;;;;;12.02;7.65;;;12.50;90.50;;;;;;5006266;28;20046;-66
2022/10/05 04:46:12;;;;;;;16.30;7.82;;;12.50;90.60;;;;;;5008841;28;20088;-66
2022/10/05 04:48:59;;;;;;;14.05;6.80;;;12.50;90.60;;;;;;5006959;28;20100;-66
2022/10/05 04:51:36;;;;;;;13.65;7.07;;;12.40;90.80;;;;;;5009659;28;20128;-66
2022/10/05 04:54:44;;;;;;;13.73;7.85;;;12.50;90.70;;;;;;5007837;28;20540;-66
2022/10/05 04:57:16;;;;;;;13.50;7.50;;;12.50;90.70;;;;;;4945981;29;20133;-67
2022/10/05 05:00:00;;;;;;;12.48;7.57;;;12.50;90.60;;;;;;4998865;28;20045;-66
2022/10/05 05:02:47;;;;;;;12.52;7.38;;;12.50;90.70;;;;;;4999243;28;20358;-66
2022/10/05 05:05:32;;;;;;;16.63;7.53;;;12.50;90.70;;;;;;4995549;28;20451;-66
2022/10/05 05:08:05;;;;;;;14.35;7.78;;;12.50;90.90;;;;;;5000276;28;20041;-67
2022/10/05 05:10:48;;;;;;;18.73;7.45;;;12.50;90.60;;;;;;4996066;28;20051;-66
2022/10/05 05:13:35;;;;;;;14.05;6.88;;;12.50;90.80;;;;;;4987801;28;20382;-67
2022/10/05 05:16:11;;;;;;;13.93;7.63;;;12.50;90.70;;;;;;4990292;28;20026;-69
2022/10/05 05:19:01;;;;;;;16.73;8.20;;;12.60;90.60;;;;;;4990925;28;20038;-69
2022/10/05 05:21:51;;;;;;;12.87;7.57;;;12.50;90.70;;;;;;4996948;28;20033;-68
2022/10/05 05:24:39;;;;;;;11.55;6.85;;;12.50;90.80;;;;;;5003507;28;20277;-66
2022/10/05 05:27:37;;;;;;;13.98;7.63;;;12.50;91.00;;;;;;4998627;28;20038;-66
2022/10/05 05:30:07;;;;;;;12.43;7.38;;;12.50;90.90;;;;;;5002355;28;20474;-67
2022/10/05 05:33:19;;;;;;;15.60;7.65;;;12.50;90.80;;;;;;5006598;28;20049;-68
2022/10/05 05:36:04;;;;;;;11.13;7.38;;;12.50;91.00;;;;;;4939898;28;20027;-66
2022/10/05 05:38:34;;;;;;;11.25;7.32;;;12.50;91.10;;;;;;5000226;28;20080;-65
2022/10/05 05:41:05;;;;;;;15.40;7.50;;;12.40;91.40;;;;;;4999149;28;20692;-66
2022/10/05 05:43:58;;;;;;;12.65;7.53;;;12.40;91.40;;;;;;5003994;28;20030;-67
2022/10/05 05:46:38;;;;;;;12.90;7.45;;;12.40;91.50;;;;;;5007391;28;20030;-66
2022/10/05 05:49:15;;;;;;;16.35;8.27;;;12.40;91.60;;;;;;4998546;28;20081;-67
2022/10/05 05:51:56;;;;;;;15.10;7.85;;;12.30;91.70;;;;;;4998314;28;20455;-66
2022/10/05 05:54:42;;;;;;;11.98;7.03;;;12.40;91.70;;;;;;4993794;28;20041;-67
2022/10/05 05:57:15;;;;;;;12.30;7.18;;;12.40;91.70;;;;;;4997698;28;20057;-67
2022/10/05 05:59:49;;;;;;;11.60;7.20;;;12.40;91.70;;;;;;5007059;28;20032;-67
2022/10/05 06:02:22;;;;;;;14.45;6.90;;;12.50;91.70;;;;;;5003765;28;20034;-66
2022/10/05 06:04:57;;;;;;;11.90;7.18;;;12.50;91.50;;;;;;5010614;28;20407;-66
2022/10/05 06:07:25;;;;;;;13.88;7.03;;;12.50;91.50;;;;;;5010647;28;20034;-67
2022/10/05 06:09:57;;;;;;;12.40;7.45;;;12.50;91.50;;;;;;5009691;28;20445;-66
2022/10/05 06:12:27;;;;;;;13.63;7.20;;;12.50;91.50;;;;;;5009254;28;20053;-67
2022/10/05 06:15:02;;;;;;;13.97;7.50;;;12.50;91.60;;;;;;5001897;28;20027;-66
2022/10/05 06:17:48;;;;;;;12.13;7.00;;;12.50;91.50;;;;;;5012115;28;20030;-66
2022/10/05 06:20:42;;;;;;;10.50;7.35;;;12.50;91.40;;;;;;5012134;28;20072;-66
2022/10/05 06:23:17;;;;;;;12.15;6.80;;;12.50;91.60;;;;;;4977177;28;20099;-66
2022/10/05 06:26:02;;;;;;;12.50;6.80;;;12.60;91.60;;;;;;5003813;28;20249;-66
2022/10/05 06:28:28;;;;;;;11.13;6.15;;;12.60;91.40;;;;;;5002123;28;20026;-68
2022/10/05 06:31:09;;;;;;;14.10;7.07;;;12.70;91.30;;;;;;5005371;28;20371;-67
2022/10/05 06:33:47;;;;;;;11.80;6.82;;;12.70;91.30;;;;;;5002635;28;20038;-67
2022/10/05 06:36:25;;;;;;;12.20;6.60;;;12.70;91.20;;;;;;5003044;28;20096;-66
2022/10/05 06:38:53;;;;;;;12.93;6.30;;;12.80;91.00;;;;;;5006577;28;20395;-67
2022/10/05 06:41:33;;;;;;;13.35;6.85;;;12.80;91.00;;;;;;5007440;28;20073;-67
2022/10/05 06:44:14;;;;;;;10.90;6.65;;;13.00;90.70;;;;;;5001364;28;20049;-67
2022/10/05 06:47:22;;;;;;;8.68;5.75;;;13.00;90.40;;;;;;4999485;28;20049;-67
2022/10/05 06:50:10;;;;;;;13.35;6.82;;;13.10;90.40;;;;;;5000234;28;20473;-67
2022/10/05 06:53:04;;;;;;;13.38;6.03;;;13.20;90.10;;;;;;5009465;28;20466;-67
2022/10/05 06:56:10;;;;;;;11.98;6.18;;;13.20;89.70;;;;;;5003204;28;20386;-69
2022/10/05 06:59:03;;;;;;;11.95;5.70;;;13.30;89.90;;;;;;5005941;28;20082;-66
2022/10/05 07:01:45;;;;;;;11.30;6.05;;;13.30;89.60;;;;;;5007773;28;20082;-66
2022/10/05 07:04:33;;;;;;;9.52;6.03;;;13.30;89.60;;;;;;4996426;28;20026;-67
2022/10/05 07:07:13;;;;;;;11.40;5.35;;;13.40;89.60;;;;;;5007963;28;20057;-66
2022/10/05 07:09:48;;;;;;;10.13;5.90;;;13.40;89.70;;;;;;5009737;28;20069;-66
2022/10/05 07:12:38;;;;;;;9.40;5.72;;;13.50;89.60;;;;;;5015351;28;20473;-66
2022/10/05 07:15:23;;;;;;;8.98;5.78;;;13.50;89.20;;;;;;5011577;28;20116;-67
2022/10/05 07:18:07;;;;;;;10.77;5.47;;;13.50;89.30;;;;;;5011641;28;20033;-67
2022/10/05 07:20:51;;;;;;;9.07;5.60;;;13.50;89.30;;;;;;5007375;28;20034;-67
2022/10/05 07:23:25;;;;;;;14.70;6.22;;;13.60;89.20;;;;;;5010774;28;20058;-67
2022/10/05 07:26:18;;;;;;;9.68;5.68;;;13.70;89.00;;;;;;5009409;28;20038;-67
2022/10/05 07:29:09;;;;;;;11.43;6.47;;;13.60;88.90;;;;;;4997249;28;20042;-66
2022/10/05 07:32:01;;;;;;;12.40;5.78;;;13.70;89.00;;;;;;5010056;28;20026;-66
2022/10/05 07:34:41;;;;;;;12.20;6.20;;;13.70;89.00;;;;;;5011351;28;20037;-66
2022/10/05 07:40:22;;;;;;;18.00;5.60;;;13.70;88.70;;;;;;5009375;28;20458;-66
2022/10/05 07:43:13;;;;;;;11.25;5.65;;;13.70;88.80;;;;;;5010515;28;20618;-67
2022/10/05 07:46:19;;;;;;;11.10;5.60;;;13.70;88.80;;;;;;5005185;28;20038;-67
2022/10/05 07:49:02;;;;;;;12.00;5.82;;;13.60;89.00;;;;;;5008815;28;20403;-66
2022/10/05 07:52:00;;;;;;;11.82;6.32;;;13.60;89.40;;;;;;5008226;28;20363;-67
2022/10/05 07:54:44;;;;;;;10.68;5.80;;;13.60;89.30;;;;;;5013808;28;20034;-66
2022/10/05 07:57:29;;;;;;;13.15;5.93;;;13.70;89.40;;;;;;5008879;28;20073;-67
2022/10/05 08:00:00;;;;;;;14.15;6.03;;;13.60;89.20;;;;;;5024525;28;20038;-66
2022/10/05 08:02:43;;;;;;;12.57;6.60;;;13.60;89.30;;;;;;5011219;28;20462;-67
2022/10/05 08:05:34;;;;;;;10.20;6.20;;;13.60;89.50;;;;;;5010531;28;20117;-66
2022/10/05 08:08:05;;;;;;;11.85;6.47;;;13.60;89.60;;;;;;5005023;28;20061;-66
2022/10/05 08:10:42;;;;;;;11.25;5.60;;;13.60;89.70;;;;;;5006292;28;20340;-67
2022/10/05 08:13:20;;;;;;;11.63;5.47;;;13.70;89.60;;;;;;5009104;28;20493;-68
2022/10/05 08:15:52;;;;;;;9.65;5.95;;;13.90;89.40;;;;;;5007561;28;20441;-67
2022/10/05 08:18:55;;;;;;;8.93;5.47;;;14.00;89.10;;;;;;5008481;28;20037;-66
2022/10/05 08:21:36;;;;;;;9.63;6.25;;;14.10;88.80;;;;;;5010055;28;20073;-66
2022/10/05 08:24:14;;;;;;;10.18;6.32;;;14.30;88.40;;;;;;5003726;28;20794;-68
2022/10/05 08:26:58;;;;;;;9.85;5.97;;;14.40;88.20;;;;;;5006526;28;20025;-66
2022/10/05 08:30:00;;;;;;;11.70;6.05;;;14.60;88.00;;;;;;5005670;28;20038;-67
2022/10/05 08:32:40;;;;;;;13.63;6.05;;;14.60;87.50;;;;;;5013661;28;20087;-69
2022/10/05 08:35:33;;;;;;;11.75;6.03;;;14.50;87.80;;;;;;5010038;28;20069;-66
2022/10/05 08:38:01;;;;;;;10.45;5.78;;;14.50;87.60;;;;;;5009997;28;20470;-68
2022/10/05 08:40:54;;;;;;;11.15;5.50;;;14.50;87.80;;;;;;5007628;28;20033;-68
2022/10/05 08:43:33;;;;;;;13.57;6.15;;;14.70;87.30;;;;;;5007871;28;20029;-67
2022/10/05 08:46:30;;;;;;;9.68;5.50;;;14.80;87.20;;;;;;5014689;28;20466;-67
2022/10/05 08:49:19;;;;;;;8.65;5.20;;;14.90;86.40;;;;;;5009776;28;20034;-67
2022/10/05 08:51:53;;;;;;;8.38;5.47;;;15.00;86.20;;;;;;5009892;28;20029;-67
2022/10/05 08:54:37;;;;;;;10.85;5.72;;;15.00;85.90;;;;;;5008313;28;20060;-66
2022/10/05 08:57:22;;;;;;;9.48;4.50;;;15.10;85.80;;;;;;5013228;28;20540;-72
2022/10/05 09:00:09;;;;;;;8.70;4.70;;;15.20;85.40;;;;;;5006556;28;20037;-68
2022/10/05 09:02:59;;;;;;;7.72;4.50;;;15.20;84.60;;;;;;5008948;28;20089;-66
2022/10/05 09:06:13;;;;;;;7.82;4.22;;;15.30;84.40;;;;;;5009367;28;20125;-67
2022/10/05 09:09:02;;;;;;;10.48;4.30;;;15.50;84.60;;;;;;4999931;28;20100;-67
2022/10/05 09:11:43;;;;;;;8.43;4.38;;;15.40;83.60;;;;;;4993536;28;20029;-67
2022/10/05 09:14:26;;;;;;;7.05;4.20;;;15.50;84.00;;;;;;5007253;28;20109;-68
2022/10/05 09:17:15;;;;;;;10.85;4.53;;;15.60;83.90;;;;;;5009910;28;20034;-68
2022/10/05 09:19:50;;;;;;;8.13;4.30;;;15.50;83.20;;;;;;4996028;28;20038;-67
2022/10/05 09:22:48;;;;;;;9.60;4.43;;;15.50;83.20;;;;;;5003312;28;20034;-68
2022/10/05 09:25:44;;;;;;;7.13;4.38;;;15.50;83.30;;;;;;5007779;28;20376;-67
2022/10/05 09:28:22;;;;;;;8.90;4.13;;;15.50;83.00;;;;;;5006455;28;20470;-67
2022/10/05 09:31:26;;;;;;;10.02;4.28;;;15.50;83.30;;;;;;5009734;28;20026;-66
2022/10/05 09:34:13;;;;;;;7.82;4.45;;;15.50;83.50;;;;;;4982150;28;20115;-67
2022/10/05 09:37:10;;;;;;;8.60;4.40;;;15.50;83.60;;;;;;5002953;28;20411;-67
2022/10/05 09:40:07;;;;;;;10.27;4.47;;;15.60;83.40;;;;;;5011627;28;20034;-67
2022/10/05 09:43:03;;;;;;;8.40;4.63;;;15.50;82.70;;;;;;5011442;28;20129;-67
2022/10/05 09:45:47;;;;;;;7.93;4.68;;;15.50;83.00;;;;;;5009467;28;20127;-67
2022/10/05 09:48:48;;;;;;;8.98;5.22;;;15.60;82.60;;;;;;5011169;28;20084;-67
2022/10/05 09:51:47;;;;;;;7.43;4.32;;;15.60;83.40;;;;;;5012279;28;20029;-67
2022/10/05 09:54:27;;;;;;;8.57;4.40;;;15.60;83.20;;;;;;5007497;28;20041;-68
2022/10/05 09:56:59;;;;;;;10.18;5.00;;;15.50;83.20;;;;;;5011129;28;20136;-68
2022/10/05 09:59:30;;;;;;;7.78;4.60;;;15.40;83.20;;;;;;5010769;28;20125;-66
2022/10/05 10:02:03;;;;;;;9.75;4.97;;;15.40;83.40;;;;;;5012558;28;20037;-67
2022/10/05 10:04:51;;;;;;;8.80;5.55;;;15.30;83.80;;;;;;5011453;28;20025;-67
2022/10/05 10:07:32;;;;;;;7.88;4.88;;;15.30;83.60;;;;;;5011903;28;20038;-69
2022/10/05 10:10:20;;;;;;;8.55;4.53;;;15.30;83.80;;;;;;5010445;28;20061;-68
2022/10/05 10:13:19;;;;;;;11.90;5.20;;;15.30;83.70;;;;;;5004104;28;20034;-67
2022/10/05 10:15:56;;;;;;;7.22;4.70;;;15.30;83.10;;;;;;5010537;28;20037;-67
2022/10/05 10:18:47;;;;;;;8.23;4.53;;;15.30;83.30;;;;;;5012910;28;20056;-67
2022/10/05 10:21:28;;;;;;;7.38;4.30;;;15.30;82.90;;;;;;5012390;28;20034;-66
2022/10/05 10:24:14;;;;;;;7.68;4.70;;;15.30;83.00;;;;;;5011580;28;20112;-66
2022/10/05 10:27:17;;;;;;;6.30;4.40;;;15.20;82.60;;;;;;4996993;28;20046;-67
2022/10/05 10:30:34;;;;;;;8.23;4.47;;;15.20;82.90;;;;;;5009154;28;20413;-67
2022/10/05 10:33:24;;;;;;;7.20;4.47;;;15.20;82.90;;;;;;5000814;28;20030;-67
2022/10/05 10:36:08;;;;;;;7.80;4.47;;;15.30;82.80;;;;;;5012118;28;20099;-67
2022/10/05 10:38:53;;;;;;;6.20;3.95;;;15.30;82.70;;;;;;5011519;28;20034;-67
2022/10/05 10:41:27;;;;;;;8.95;4.38;;;15.40;82.70;;;;;;4999691;28;20474;-68
2022/10/05 10:44:17;;;;;;;5.43;3.78;;;15.40;82.30;;;;;;4995177;28;20030;-67
2022/10/05 10:46:51;;;;;;;5.63;3.78;;;15.50;82.10;;;;;;5011512;28;20026;-66
2022/10/05 10:49:58;;;;;;;10.98;4.10;;;15.50;81.40;;;;;;5010901;28;20089;-67
2022/10/05 10:52:58;;;;;;;5.93;3.60;;;15.60;81.70;;;;;;5011755;28;20030;-67
2022/10/05 10:55:29;;;;;;;7.38;3.80;;;15.60;81.90;;;;;;4998955;28;20118;-67
2022/10/05 10:58:26;;;;;;;6.53;3.42;;;15.60;81.70;;;;;;4998998;28;20159;-67
2022/10/05 11:01:13;;;;;;;5.35;3.53;;;15.70;82.30;;;;;;5004974;28;20424;-67
2022/10/05 11:04:20;;;;;;;4.95;3.38;;;15.60;81.60;;;;;;5005675;28;20151;-67
2022/10/05 11:07:04;;;;;;;8.05;3.42;;;15.60;81.30;;;;;;5005396;28;20030;-68
2022/10/05 11:09:51;;;;;;;6.50;3.30;;;15.80;81.00;;;;;;4998597;28;20038;-70
2022/10/05 11:12:48;;;;;;;6.47;2.92;;;15.80;81.20;;;;;;5007462;28;20030;-69
2022/10/05 11:15:46;;;;;;;7.50;3.20;;;15.80;80.10;;;;;;5010578;28;20069;-68
2022/10/05 11:18:21;;;;;;;6.88;3.30;;;16.00;80.80;;;;;;5005556;28;20030;-68
2022/10/05 11:21:21;;;;;;;6.03;3.00;;;16.00;79.30;;;;;;5002796;28;20030;-68
2022/10/05 11:24:20;;;;;;;4.78;2.83;;;16.00;79.30;;;;;;5010071;28;20038;-70
2022/10/05 11:27:04;;;;;;;3.92;2.70;;;16.00;79.20;;;;;;5018912;28;20053;-68
2022/10/05 11:30:05;;;;;;;7.45;3.13;;;16.10;79.00;;;;;;5011058;28;20201;-69
2022/10/05 11:33:03;;;;;;;4.22;2.75;;;16.10;78.70;;;;;;5002427;28;20458;-69
2022/10/05 11:35:56;;;;;;;5.03;2.70;;;16.10;78.50;;;;;;4995454;28;20034;-69
2022/10/05 11:38:47;;;;;;;6.40;2.78;;;16.20;78.60;;;;;;4999762;28;20123;-71
2022/10/05 11:41:42;;;;;;;5.07;2.97;;;16.30;78.30;;;;;;5009643;28;20032;-70
2022/10/05 11:44:23;;;;;;;5.43;2.53;;;16.50;77.60;;;;;;5006017;28;20026;-68
2022/10/05 11:47:07;;;;;;;;;;;16.70;76.90;;;;;;5010688;28;20049;-69
2022/10/05 11:49:52;;;;;;;5.75;2.67;;;16.90;77.00;;;;;;5007478;28;19959;-69
2022/10/05 11:52:24;;;;;;;5.25;2.38;;;16.80;76.20;;;;;;5000293;28;20107;-69
2022/10/05 11:55:09;;;;;;;3.75;2.25;;;16.90;76.20;;;;;;5006396;28;20037;-68
2022/10/05 11:57:49;;;;;;;8.70;2.92;;;17.10;76.10;;;;;;5006706;28;20054;-69
2022/10/05 12:00:20;;;;;;;4.53;2.53;;;16.90;74.70;;;;;;4999260;28;20033;-72
2022/10/05 12:02:49;;;;;;;5.93;2.60;;;17.20;75.50;;;;;;5006244;28;20047;-68
2022/10/05 12:05:53;;;;;;;4.63;2.67;;;17.20;75.70;;;;;;5007035;28;20030;-67
2022/10/05 12:08:28;;;;;;;4.43;2.22;;;17.10;76.00;;;;;;5005512;28;20033;-69
2022/10/05 12:11:18;;;;;;;4.32;2.17;;;17.10;76.20;;;;;;5001429;28;20038;-68
2022/10/05 12:13:56;;;;;;;3.10;2.22;;;17.20;75.70;;;;;;5003341;28;20212;-67
2022/10/05 12:16:34;;;;;;;5.80;2.88;;;17.30;76.00;;;;;;5010810;28;20034;-70
2022/10/05 12:19:04;;;;;;;6.15;3.13;;;17.00;75.90;;;;;;5004716;28;20519;-67
2022/10/05 12:21:40;;;;;;;5.00;2.58;;;17.20;75.30;;;;;;5002786;28;20033;-68
2022/10/05 12:24:35;;;;;;;5.78;2.88;;;17.10;76.30;;;;;;5006292;28;20481;-70
2022/10/05 12:27:15;;;;;;;4.47;2.42;;;17.10;76.00;;;;;;5000181;28;20038;-69
2022/10/05 12:29:49;;;;;;;4.30;2.70;;;17.30;76.00;;;;;;5007109;28;20056;-69
2022/10/05 12:32:24;;;;;;;4.28;2.30;;;17.30;76.70;;;;;;5009684;28;20042;-68
2022/10/05 12:35:24;;;;;;;6.72;2.40;;;17.10;76.00;;;;;;5009791;28;20113;-69
2022/10/05 12:38:27;;;;;;;4.72;2.17;;;17.20;76.20;;;;;;5010950;28;20120;-69
2022/10/05 12:41:30;;;;;;;9.38;2.45;;;17.40;75.90;;;;;;5003891;28;20072;-70
2022/10/05 12:44:19;;;;;;;4.70;2.70;;;17.50;76.40;;;;;;5014853;28;20097;-68
2022/10/05 12:47:16;;;;;;;4.80;2.05;;;17.40;76.10;;;;;;5003229;28;20482;-68
2022/10/05 12:50:15;;;;;;;5.10;2.47;;;17.60;75.50;;;;;;5009188;28;20056;-69
2022/10/05 12:52:48;;;;;;;7.38;3.10;;;17.50;75.10;;;;;;5009615;28;20028;-69
2022/10/05 12:55:30;;;;;;;6.00;2.40;;;17.40;75.50;;;;;;5003685;28;20092;-71
2022/10/05 12:58:16;;;;;;;4.40;2.10;;;17.50;76.40;;;;;;5000881;28;20076;-68
2022/10/05 13:01:00;;;;;;;5.85;2.30;;;17.70;76.40;;;;;;5004214;28;20038;-68
2022/10/05 13:03:59;;;;;;;5.82;2.30;;;17.70;75.70;;;;;;5001062;28;20469;-68
2022/10/05 13:06:46;;;;;;;4.82;2.10;;;17.70;75.20;;;;;;5007953;28;20063;-68
2022/10/05 13:09:27;;;;;;;4.88;2.55;;;18.00;75.10;;;;;;5002880;28;20061;-69
2022/10/05 13:11:55;;;;;;;;;;;18.00;74.10;;;;;;5002199;28;20049;-68
2022/10/05 13:14:52;;;;;;;4.90;2.03;;;18.10;75.00;;;;;;5006074;28;19916;-69
2022/10/05 13:18:04;;;;;;;6.22;2.53;;;18.50;74.30;;;;;;5003731;28;20422;-68
2022/10/05 13:20:50;;;;;;;6.07;1.80;;;18.60;73.20;;;;;;4998036;28;20048;-68
2022/10/05 13:23:52;;;;;;;5.30;2.15;;;19.00;71.60;;;;;;5004314;28;20046;-68
2022/10/05 13:26:44;;;;;;;4.07;1.80;;;19.60;71.60;;;;;;5004952;28;20416;-70
2022/10/05 13:29:32;;;;;;;5.43;1.75;;;19.40;70.30;;;;;;4981205;28;20038;-68
2022/10/05 13:32:31;;;;;;;4.80;1.73;;;19.60;69.20;;;;;;5006610;28;20041;-67
2022/10/05 13:35:27;;;;;;;4.03;1.90;;;20.00;69.20;;;;;;4991338;28;20034;-68
2022/10/05 13:38:22;;;;;;;3.95;1.70;;;20.00;68.30;;;;;;5003743;28;20034;-69
2022/10/05 13:40:57;;;;;;;3.40;1.83;;;20.00;67.20;;;;;;4998836;28;20029;-68
2022/10/05 13:43:47;;;;;;;4.03;1.95;;;20.40;67.40;;;;;;5003825;28;20042;-69
2022/10/05 13:46:23;;;;;;;5.53;2.28;;;20.50;66.30;;;;;;5006423;28;20030;-69
2022/10/05 13:49:20;;;;;;;2.63;1.60;;;20.20;67.50;;;;;;5004037;28;20046;-68
2022/10/05 13:51:57;;;;;;;2.60;1.60;;;20.00;68.60;;;;;;4945445;28;20527;-69
2022/10/05 13:54:41;;;;;;;3.78;1.65;;;20.00;68.60;;;;;;5003482;28;20458;-69
2022/10/05 13:57:12;;;;;;;3.70;1.83;;;19.60;69.40;;;;;;5004071;28;20050;-69
2022/10/05 14:00:05;;;;;;;3.92;1.67;;;19.50;70.40;;;;;;5005135;28;20041;-69
2022/10/05 14:02:38;;;;;;;4.75;1.98;;;19.10;71.30;;;;;;4998265;28;20073;-68
2022/10/05 14:05:27;;;;;;;4.95;2.00;;;19.60;71.20;;;;;;5007175;28;20065;-68
2022/10/05 14:08:03;;;;;;;3.92;2.10;;;19.20;70.40;;;;;;5004216;28;20041;-68
2022/10/05 14:10:34;;;;;;;3.95;1.60;;;19.00;72.40;;;;;;5004311;28;20106;-68
2022/10/05 14:13:01;;;;;;;4.38;2.00;;;18.80;73.40;;;;;;5002632;28;20041;-68